Aalter, Belgium
Current Conditions -  °F | °C
As of 7:25 AM on Friday 19 Dec 2014 (Local Time) from EHFS Reporting Station
Light Rain Light Rain  
Wind Chill: 52°   Ceiling: 1000
Heat Index: 52°   Visibility: 2.5mi
Dew Point: 50°   Wind: 32mph
Humidity: 94%   Direction: 230°SW
Pressure: 29.77"   Gusts: NA
Location:  51.09°N, 3.45°E
Report Text: EHFS 190625Z AUTO 23028KT 4100 -RA FEW007/// SCT008///BKN010/// 11/10 Q1008 RERA REDZ
Loading
Personal Weather Stations






























Interactive Weather Map New forecast layout! Learn more

10-Day Weather Forecast

Advertisements
Track Severe Weather on mobile